sensor_id;sensor_type;location;lat;lon;timestamp;pressure;altitude;pressure_sealevel;temperature;humidity
48792;BME280;34587;48.816;9.420;2023-03-15T00:01:27;98406.00;;;1.51;96.17
48792;BME280;34587;48.816;9.420;2023-03-15T00:03:52;98405.28;;;1.63;96.25
48792;BME280;34587;48.816;9.420;2023-03-15T00:06:21;98418.03;;;1.62;96.13
48792;BME280;34587;48.816;9.420;2023-03-15T00:08:46;98427.25;;;1.49;96.15
48792;BME280;34587;48.816;9.420;2023-03-15T00:11:13;98434.25;;;1.65;97.01
48792;BME280;34587;48.816;9.420;2023-03-15T00:13:39;98442.56;;;1.49;96.74
48792;BME280;34587;48.816;9.420;2023-03-15T00:16:04;98442.72;;;1.61;96.42
48792;BME280;34587;48.816;9.420;2023-03-15T00:18:31;98457.09;;;1.54;96.50
48792;BME280;34587;48.816;9.420;2023-03-15T00:20:56;98464.81;;;1.59;96.79
48792;BME280;34587;48.816;9.420;2023-03-15T00:23:22;98465.81;;;1.73;96.97
48792;BME280;34587;48.816;9.420;2023-03-15T00:25:49;98472.75;;;1.80;97.20
48792;BME280;34587;48.816;9.420;2023-03-15T00:28:15;98485.41;;;1.71;96.68
48792;BME280;34587;48.816;9.420;2023-03-15T00:30:40;98495.56;;;1.68;96.47
48792;BME280;34587;48.816;9.420;2023-03-15T00:33:06;98494.03;;;1.81;97.07
48792;BME280;34587;48.816;9.420;2023-03-15T00:35:32;98496.34;;;1.61;96.05
48792;BME280;34587;48.816;9.420;2023-03-15T00:37:58;98498.75;;;1.52;96.79
48792;BME280;34587;48.816;9.420;2023-03-15T00:40:24;98507.22;;;1.48;96.89
48792;BME280;34587;48.816;9.420;2023-03-15T00:42:50;98505.44;;;1.44;97.01
48792;BME280;34587;48.816;9.420;2023-03-15T00:45:24;98511.66;;;1.63;97.56
48792;BME280;34587;48.816;9.420;2023-03-15T00:47:51;98508.25;;;1.61;96.79
48792;BME280;34587;48.816;9.420;2023-03-15T00:50:17;98511.59;;;1.55;96.62
48792;BME280;34587;48.816;9.420;2023-03-15T00:52:43;98515.06;;;1.60;96.68
48792;BME280;34587;48.816;9.420;2023-03-15T00:55:12;98519.31;;;1.61;97.10
48792;BME280;34587;48.816;9.420;2023-03-15T00:57:40;98526.84;;;1.53;97.34
48792;BME280;34587;48.816;9.420;2023-03-15T05:15:21;98858.03;;;-0.60;100.00
48792;BME280;34587;48.816;9.420;2023-03-15T05:17:46;98854.13;;;-0.79;100.00
48792;BME280;34587;48.816;9.420;2023-03-15T05:20:13;98861.72;;;-0.80;100.00
48792;BME280;34587;48.816;9.420;2023-03-15T05:22:40;98856.38;;;-0.89;100.00
48792;BME280;34587;48.816;9.420;2023-03-15T05:25:06;98862.94;;;-0.67;100.00
48792;BME280;34587;48.816;9.420;2023-03-15T05:27:32;98861.13;;;-0.71;100.00
48792;BME280;34587;48.816;9.420;2023-03-15T05:29:59;98862.25;;;-0.92;100.00
48792;BME280;34587;48.816;9.420;2023-03-15T05:32:28;98867.56;;;-0.83;100.00
48792;BME280;34587;48.816;9.420;2023-03-15T05:34:54;98866.41;;;-0.94;100.00
48792;BME280;34587;48.816;9.420;2023-03-15T05:37:22;98870.63;;;-0.94;100.00
48792;BME280;34587;48.816;9.420;2023-03-15T05:39:48;98869.13;;;-0.88;100.00
48792;BME280;34587;48.816;9.420;2023-03-15T05:42:14;98874.72;;;-0.69;100.00
48792;BME280;34587;48.816;9.420;2023-03-15T05:44:39;98860.31;;;-0.69;100.00
48792;BME280;34587;48.816;9.420;2023-03-15T05:47:05;98865.50;;;-0.66;100.00
48792;BME280;34587;48.816;9.420;2023-03-15T05:49:30;98878.34;;;-0.61;100.00
48792;BME280;34587;48.816;9.420;2023-03-15T05:51:55;98867.44;;;-0.57;100.00
48792;BME280;34587;48.816;9.420;2023-03-15T05:54:21;98876.72;;;-0.59;100.00
48792;BME280;34587;48.816;9.420;2023-03-15T05:56:46;98886.06;;;-0.58;100.00
48792;BME280;34587;48.816;9.420;2023-03-15T05:59:11;98877.63;;;0.08;100.00
48792;BME280;34587;48.816;9.420;2023-03-15T06:01:37;98874.38;;;0.86;100.00
48792;BME280;34587;48.816;9.420;2023-03-15T06:04:02;98868.28;;;1.62;100.00
48792;BME280;34587;48.816;9.420;2023-03-15T06:06:28;98857.63;;;2.91;97.38
48792;BME280;34587;48.816;9.420;2023-03-15T06:08:53;98847.38;;;3.59;87.88
48792;BME280;34587;48.816;9.420;2023-03-15T06:11:19;98833.78;;;4.67;80.00
48792;BME280;34587;48.816;9.420;2023-03-15T06:13:44;98838.50;;;5.61;72.19
48792;BME280;34587;48.816;9.420;2023-03-15T06:16:09;98830.00;;;5.92;67.05
48792;BME280;34587;48.816;9.420;2023-03-15T06:18:35;98833.25;;;5.27;68.97
48792;BME280;34587;48.816;9.420;2023-03-15T06:21:00;98835.19;;;6.44;64.47
48792;BME280;34587;48.816;9.420;2023-03-15T06:23:25;98841.06;;;7.14;62.01
48792;BME280;34587;48.816;9.420;2023-03-15T06:25:50;98832.72;;;8.27;57.19
48792;BME280;34587;48.816;9.420;2023-03-15T06:28:16;98836.47;;;8.91;55.23
48792;BME280;34587;48.816;9.420;2023-03-15T06:30:41;98848.59;;;9.57;54.44
48792;BME280;34587;48.816;9.420;2023-03-15T06:33:06;98850.16;;;9.70;53.69
48792;BME280;34587;48.816;9.420;2023-03-15T06:35:32;98853.53;;;8.03;56.18
48792;BME280;34587;48.816;9.420;2023-03-15T06:37:57;98864.31;;;6.04;61.96
48792;BME280;34587;48.816;9.420;2023-03-15T06:40:22;98863.50;;;6.55;61.50
48792;BME280;34587;48.816;9.420;2023-03-15T06:42:47;98866.91;;;6.76;63.58
48792;BME280;34587;48.816;9.420;2023-03-15T06:45:13;98881.38;;;5.71;65.04
48792;BME280;34587;48.816;9.420;2023-03-15T06:47:40;98883.75;;;5.22;68.54
48792;BME280;34587;48.816;9.420;2023-03-15T06:50:06;98888.69;;;3.90;73.33
48792;BME280;34587;48.816;9.420;2023-03-15T06:52:32;98890.28;;;3.78;76.75
48792;BME280;34587;48.816;9.420;2023-03-15T06:54:57;98884.47;;;3.96;75.79
48792;BME280;34587;48.816;9.420;2023-03-15T06:57:23;98885.06;;;3.72;75.74
48792;BME280;34587;48.816;9.420;2023-03-15T06:59:48;98888.84;;;4.05;74.13
48792;BME280;34587;48.816;9.420;2023-03-15T07:02:15;98889.59;;;3.93;73.30
48792;BME280;34587;48.816;9.420;2023-03-15T07:04:42;98891.03;;;3.70;74.31
48792;BME280;34587;48.816;9.420;2023-03-15T07:07:12;98883.75;;;3.32;74.27
48792;BME280;34587;48.816;9.420;2023-03-15T07:09:38;98890.91;;;2.94;76.71
48792;BME280;34587;48.816;9.420;2023-03-15T07:12:04;98896.66;;;2.77;77.99
48792;BME280;34587;48.816;9.420;2023-03-15T07:14:30;98904.84;;;3.14;78.03
48792;BME280;34587;48.816;9.420;2023-03-15T07:16:57;98894.59;;;3.11;77.58
48792;BME280;34587;48.816;9.420;2023-03-15T07:19:22;98895.31;;;3.04;77.21
48792;BME280;34587;48.816;9.420;2023-03-15T07:21:47;98906.13;;;2.83;77.91
48792;BME280;34587;48.816;9.420;2023-03-15T07:24:12;98898.66;;;2.97;77.61
48792;BME280;34587;48.816;9.420;2023-03-15T07:26:38;98898.63;;;3.62;71.87
48792;BME280;34587;48.816;9.420;2023-03-15T07:29:03;98898.44;;;3.44;69.76
48792;BME280;34587;48.816;9.420;2023-03-15T07:31:28;98889.78;;;3.35;70.31
48792;BME280;34587;48.816;9.420;2023-03-15T07:33:54;98904.97;;;3.23;69.36
48792;BME280;34587;48.816;9.420;2023-03-15T07:36:19;98901.66;;;3.30;70.18
48792;BME280;34587;48.816;9.420;2023-03-15T07:38:46;98908.75;;;3.51;71.46
48792;BME280;34587;48.816;9.420;2023-03-15T07:41:11;98917.16;;;3.40;70.26
48792;BME280;34587;48.816;9.420;2023-03-15T07:43:36;98916.19;;;3.31;70.91
48792;BME280;34587;48.816;9.420;2023-03-15T07:46:02;98923.66;;;3.16;70.96
48792;BME280;34587;48.816;9.420;2023-03-15T07:48:27;98929.00;;;3.31;69.50
48792;BME280;34587;48.816;9.420;2023-03-15T07:50:54;98924.00;;;3.41;73.10
48792;BME280;34587;48.816;9.420;2023-03-15T07:53:19;98918.06;;;3.45;70.68
48792;BME280;34587;48.816;9.420;2023-03-15T07:55:47;98923.94;;;3.38;68.13
48792;BME280;34587;48.816;9.420;2023-03-15T07:58:12;98919.91;;;3.53;67.89
48792;BME280;34587;48.816;9.420;2023-03-15T08:00:37;98931.00;;;3.57;66.81
48792;BME280;34587;48.816;9.420;2023-03-15T08:03:03;98928.66;;;3.74;68.82
48792;BME280;34587;48.816;9.420;2023-03-15T08:05:29;98934.75;;;3.83;67.77
48792;BME280;34587;48.816;9.420;2023-03-15T08:07:55;98928.91;;;3.95;67.68
48792;BME280;34587;48.816;9.420;2023-03-15T08:10:21;98919.72;;;4.17;66.08
48792;BME280;34587;48.816;9.420;2023-03-15T08:12:46;98925.56;;;4.04;67.19
48792;BME280;34587;48.816;9.420;2023-03-15T08:15:13;98910.56;;;4.44;65.44
48792;BME280;34587;48.816;9.420;2023-03-15T08:17:39;98910.97;;;4.96;65.33
48792;BME280;34587;48.816;9.420;2023-03-15T08:20:06;98913.81;;;5.48;61.21
48792;BME280;34587;48.816;9.420;2023-03-15T08:22:34;98901.88;;;7.61;55.24
48792;BME280;34587;48.816;9.420;2023-03-15T08:24:59;98907.19;;;8.81;50.83
48792;BME280;34587;48.816;9.420;2023-03-15T08:27:25;98903.63;;;10.34;46.32
48792;BME280;34587;48.816;9.420;2023-03-15T08:29:50;98900.19;;;11.34;44.27
48792;BME280;34587;48.816;9.420;2023-03-15T08:32:18;98897.34;;;12.30;42.03
48792;BME280;34587;48.816;9.420;2023-03-15T08:34:44;98904.78;;;12.81;39.51
48792;BME280;34587;48.816;9.420;2023-03-15T08:37:10;98901.94;;;12.90;38.23
48792;BME280;34587;48.816;9.420;2023-03-15T08:39:37;98906.22;;;13.59;37.87
48792;BME280;34587;48.816;9.420;2023-03-15T08:42:02;98905.06;;;13.04;38.54
48792;BME280;34587;48.816;9.420;2023-03-15T08:44:28;98911.19;;;13.97;36.77
48792;BME280;34587;48.816;9.420;2023-03-15T08:46:53;98903.69;;;12.55;38.14
48792;BME280;34587;48.816;9.420;2023-03-15T08:49:18;98919.41;;;11.69;40.85
48792;BME280;34587;48.816;9.420;2023-03-15T08:51:43;98925.38;;;12.16;40.30
48792;BME280;34587;48.816;9.420;2023-03-15T08:54:09;98925.63;;;12.42;39.44
48792;BME280;34587;48.816;9.420;2023-03-15T08:56:34;98916.44;;;13.66;37.68
48792;BME280;34587;48.816;9.420;2023-03-15T08:58:59;98916.31;;;13.39;36.85
48792;BME280;34587;48.816;9.420;2023-03-15T09:01:25;98934.13;;;11.68;40.46
48792;BME280;34587;48.816;9.420;2023-03-15T09:03:50;98952.84;;;8.77;45.13
48792;BME280;34587;48.816;9.420;2023-03-15T09:06:15;98948.22;;;9.91;43.08
48792;BME280;34587;48.816;9.420;2023-03-15T09:08:41;98936.91;;;11.61;39.93
48792;BME280;34587;48.816;9.420;2023-03-15T09:11:06;98935.16;;;12.04;39.52
48792;BME280;34587;48.816;9.420;2023-03-15T09:13:31;98938.94;;;11.88;38.29
48792;BME280;34587;48.816;9.420;2023-03-15T09:15:57;98935.63;;;11.35;40.28
48792;BME280;34587;48.816;9.420;2023-03-15T09:18:23;98939.59;;;11.99;40.20
48792;BME280;34587;48.816;9.420;2023-03-15T09:20:48;98949.91;;;11.57;41.81
48792;BME280;34587;48.816;9.420;2023-03-15T09:23:14;98931.81;;;11.99;40.99
48792;BME280;34587;48.816;9.420;2023-03-15T09:25:40;98947.31;;;12.02;39.98
48792;BME280;34587;48.816;9.420;2023-03-15T09:28:07;98946.56;;;11.04;42.08
48792;BME280;34587;48.816;9.420;2023-03-15T09:30:35;98958.00;;;10.37;43.41
48792;BME280;34587;48.816;9.420;2023-03-15T09:33:01;98951.16;;;9.61;46.56
48792;BME280;34587;48.816;9.420;2023-03-15T09:35:26;98941.66;;;12.63;40.21
48792;BME280;34587;48.816;9.420;2023-03-15T09:37:52;98937.41;;;13.28;37.80
48792;BME280;34587;48.816;9.420;2023-03-15T09:40:24;98950.81;;;12.40;38.84
48792;BME280;34587;48.816;9.420;2023-03-15T09:48:10;98950.91;;;11.50;40.23
48792;BME280;34587;48.816;9.420;2023-03-15T09:50:45;98956.56;;;10.13;42.18
48792;BME280;34587;48.816;9.420;2023-03-15T09:55:50;98952.47;;;9.17;44.86
48792;BME280;34587;48.816;9.420;2023-03-15T09:58:23;98965.16;;;8.41;45.70
48792;BME280;34587;48.816;9.420;2023-03-15T10:00:56;98963.38;;;8.49;47.14
48792;BME280;34587;48.816;9.420;2023-03-15T10:03:48;98958.78;;;8.87;45.47
48792;BME280;34587;48.816;9.420;2023-03-15T10:06:29;98962.09;;;7.51;47.88
48792;BME280;34587;48.816;9.420;2023-03-15T10:09:00;98965.56;;;7.31;50.07
48792;BME280;34587;48.816;9.420;2023-03-15T10:11:26;98960.41;;;7.25;49.48
48792;BME280;34587;48.816;9.420;2023-03-15T10:16:42;98956.81;;;7.84;49.08
48792;BME280;34587;48.816;9.420;2023-03-15T10:19:16;98961.22;;;7.53;50.05
48792;BME280;34587;48.816;9.420;2023-03-15T10:21:55;98967.22;;;7.60;49.54
48792;BME280;34587;48.816;9.420;2023-03-15T10:24:32;98960.44;;;7.20;48.96
48792;BME280;34587;48.816;9.420;2023-03-15T10:27:08;98972.47;;;6.80;50.82
48792;BME280;34587;48.816;9.420;2023-03-15T10:29:38;98970.69;;;6.33;50.94
48792;BME280;34587;48.816;9.420;2023-03-15T10:32:04;98971.59;;;6.55;50.66
48792;BME280;34587;48.816;9.420;2023-03-15T10:34:29;98969.03;;;6.60;50.95
48792;BME280;34587;48.816;9.420;2023-03-15T10:36:55;98972.44;;;6.47;50.52
48792;BME280;34587;48.816;9.420;2023-03-15T10:39:21;98961.31;;;6.95;51.25
48792;BME280;34587;48.816;9.420;2023-03-15T10:41:49;98948.34;;;7.42;49.61
48792;BME280;34587;48.816;9.420;2023-03-15T10:44:20;98946.47;;;7.87;49.04
48792;BME280;34587;48.816;9.420;2023-03-15T10:46:59;98953.44;;;7.70;47.30
48792;BME280;34587;48.816;9.420;2023-03-15T10:49:32;98954.19;;;7.98;47.37
48792;BME280;34587;48.816;9.420;2023-03-15T10:51:59;98948.13;;;8.04;48.04
48792;BME280;34587;48.816;9.420;2023-03-15T10:54:25;98942.13;;;9.20;45.17
48792;BME280;34587;48.816;9.420;2023-03-15T10:57:04;98947.53;;;10.43;43.53
48792;BME280;34587;48.816;9.420;2023-03-15T10:59:32;98937.69;;;11.18;41.97
48792;BME280;34587;48.816;9.420;2023-03-15T11:04:40;98931.19;;;14.55;34.42
48792;BME280;34587;48.816;9.420;2023-03-15T11:07:05;98934.78;;;13.92;35.42
48792;BME280;34587;48.816;9.420;2023-03-15T11:09:43;98929.66;;;12.55;38.67
48792;BME280;34587;48.816;9.420;2023-03-15T11:12:15;98942.72;;;11.27;41.23
48792;BME280;34587;48.816;9.420;2023-03-15T11:14:44;98946.28;;;10.07;42.16
48792;BME280;34587;48.816;9.420;2023-03-15T11:17:21;98937.13;;;10.46;42.76
48792;BME280;34587;48.816;9.420;2023-03-15T11:19:53;98942.22;;;9.08;43.25
48792;BME280;34587;48.816;9.420;2023-03-15T11:22:20;98950.50;;;8.40;46.29
48792;BME280;34587;48.816;9.420;2023-03-15T11:24:45;98946.44;;;7.96;47.80
48792;BME280;34587;48.816;9.420;2023-03-15T11:27:14;98936.22;;;7.72;48.57
48792;BME280;34587;48.816;9.420;2023-03-15T11:29:46;98950.09;;;7.28;48.31
48792;BME280;34587;48.816;9.420;2023-03-15T11:32:19;98938.06;;;7.33;49.29
48792;BME280;34587;48.816;9.420;2023-03-15T11:35:07;98938.03;;;7.39;49.91
48792;BME280;34587;48.816;9.420;2023-03-15T11:37:51;98933.78;;;7.23;49.06
48792;BME280;34587;48.816;9.420;2023-03-15T11:40:24;98943.28;;;7.00;50.96
48792;BME280;34587;48.816;9.420;2023-03-15T11:43:01;98938.09;;;7.30;51.70
48792;BME280;34587;48.816;9.420;2023-03-15T11:45:35;98944.09;;;7.20;52.54
48792;BME280;34587;48.816;9.420;2023-03-15T11:48:12;98957.03;;;6.83;53.57
48792;BME280;34587;48.816;9.420;2023-03-15T11:50:40;98963.88;;;6.54;55.61
48792;BME280;34587;48.816;9.420;2023-03-15T11:53:05;98962.09;;;6.22;56.28
48792;BME280;34587;48.816;9.420;2023-03-15T11:55:31;98955.28;;;6.36;56.26
48792;BME280;34587;48.816;9.420;2023-03-15T12:00:54;98945.81;;;6.28;56.87
48792;BME280;34587;48.816;9.420;2023-03-15T12:03:30;98941.56;;;6.40;56.97
48792;BME280;34587;48.816;9.420;2023-03-15T12:06:05;98945.00;;;6.49;56.18
48792;BME280;34587;48.816;9.420;2023-03-15T12:08:41;98934.72;;;6.64;55.78
48792;BME280;34587;48.816;9.420;2023-03-15T12:16:29;98929.50;;;7.10;54.17
48792;BME280;34587;48.816;9.420;2023-03-15T12:19:09;98926.78;;;7.69;53.73
48792;BME280;34587;48.816;9.420;2023-03-15T12:21:39;98929.34;;;7.68;53.27
48792;BME280;34587;48.816;9.420;2023-03-15T12:24:12;98944.13;;;7.11;54.24
48792;BME280;34587;48.816;9.420;2023-03-15T12:26:49;98948.44;;;7.00;56.64
48792;BME280;34587;48.816;9.420;2023-03-15T12:29:25;98951.88;;;6.99;54.93
48792;BME280;34587;48.816;9.420;2023-03-15T12:34:52;98938.16;;;6.64;53.02
48792;BME280;34587;48.816;9.420;2023-03-15T12:37:30;98939.88;;;6.73;51.49
48792;BME280;34587;48.816;9.420;2023-03-15T12:40:36;98948.44;;;6.78;51.02
48792;BME280;34587;48.816;9.420;2023-03-15T12:43:01;98946.72;;;7.08;50.95
48792;BME280;34587;48.816;9.420;2023-03-15T12:45:34;98944.97;;;7.10;52.08
48792;BME280;34587;48.816;9.420;2023-03-15T12:50:42;98945.81;;;7.32;55.24
48792;BME280;34587;48.816;9.420;2023-03-15T12:55:51;98956.09;;;6.17;60.10
48792;BME280;34587;48.816;9.420;2023-03-15T12:58:19;98955.22;;;6.06;62.78
48792;BME280;34587;48.816;9.420;2023-03-15T13:00:46;98953.50;;;6.14;63.49
48792;BME280;34587;48.816;9.420;2023-03-15T13:03:22;98967.25;;;6.28;63.35
48792;BME280;34587;48.816;9.420;2023-03-15T13:06:34;98954.47;;;6.63;62.38
48792;BME280;34587;48.816;9.420;2023-03-15T13:08:46;98966.16;;;5.63;65.37
48792;BME280;34587;48.816;9.420;2023-03-15T13:11:30;98967.31;;;6.43;64.71
48792;BME280;34587;48.816;9.420;2023-03-15T13:16:38;98970.75;;;7.22;63.38
48792;BME280;34587;48.816;9.420;2023-03-15T13:24:48;98992.78;;;5.79;65.91
48792;BME280;34587;48.816;9.420;2023-03-15T13:30:52;98988.06;;;5.05;72.69
48792;BME280;34587;48.816;9.420;2023-03-15T13:33:21;98985.25;;;4.77;73.84
48792;BME280;34587;48.816;9.420;2023-03-15T13:35:53;98983.50;;;4.73;74.29
48792;BME280;34587;48.816;9.420;2023-03-15T13:38:31;98973.44;;;4.98;73.37
48792;BME280;34587;48.816;9.420;2023-03-15T13:41:00;98965.38;;;5.84;71.72
48792;BME280;34587;48.816;9.420;2023-03-15T13:43:29;98970.41;;;5.57;69.30
48792;BME280;34587;48.816;9.420;2023-03-15T13:45:56;98971.53;;;6.28;67.48
48792;BME280;34587;48.816;9.420;2023-03-15T13:48:22;98969.03;;;6.54;66.46
48792;BME280;34587;48.816;9.420;2023-03-15T13:50:48;98975.88;;;6.52;63.90
48792;BME280;34587;48.816;9.420;2023-03-15T13:53:22;98965.38;;;5.89;63.60
48792;BME280;34587;48.816;9.420;2023-03-15T13:55:50;98971.19;;;5.45;65.01
48792;BME280;34587;48.816;9.420;2023-03-15T13:58:17;98973.03;;;5.67;65.71
48792;BME280;34587;48.816;9.420;2023-03-15T14:00:42;98972.44;;;6.30;64.44
48792;BME280;34587;48.816;9.420;2023-03-15T14:03:13;98974.09;;;6.11;64.77
48792;BME280;34587;48.816;9.420;2023-03-15T14:05:46;98974.16;;;6.38;64.79
48792;BME280;34587;48.816;9.420;2023-03-15T14:08:25;98984.41;;;6.20;63.17
48792;BME280;34587;48.816;9.420;2023-03-15T14:11:07;98986.06;;;6.03;63.91
48792;BME280;34587;48.816;9.420;2023-03-15T14:13:48;98986.66;;;5.53;64.91
48792;BME280;34587;48.816;9.420;2023-03-15T14:19:21;98995.72;;;4.99;71.03
48792;BME280;34587;48.816;9.420;2023-03-15T14:24:24;98993.97;;;4.98;72.73
48792;BME280;34587;48.816;9.420;2023-03-15T14:26:56;98988.13;;;5.14;74.25
48792;BME280;34587;48.816;9.420;2023-03-15T14:29:28;98978.88;;;5.40;73.35
48792;BME280;34587;48.816;9.420;2023-03-15T14:31:58;98984.91;;;5.50;72.30
48792;BME280;34587;48.816;9.420;2023-03-15T14:34:36;98988.19;;;5.25;72.22
48792;BME280;34587;48.816;9.420;2023-03-15T14:37:28;98982.31;;;5.43;72.26
48792;BME280;34587;48.816;9.420;2023-03-15T14:40:04;98979.19;;;6.02;70.95
48792;BME280;34587;48.816;9.420;2023-03-15T14:42:32;98981.00;;;6.30;68.81
48792;BME280;34587;48.816;9.420;2023-03-15T14:44:58;98970.69;;;6.15;69.17
48792;BME280;34587;48.816;9.420;2023-03-15T14:47:24;98971.53;;;6.15;68.12
48792;BME280;34587;48.816;9.420;2023-03-15T14:49:49;98964.75;;;6.83;66.91
48792;BME280;34587;48.816;9.420;2023-03-15T14:52:14;98966.47;;;6.84;65.96
48792;BME280;34587;48.816;9.420;2023-03-15T14:54:45;98970.72;;;6.42;64.90
48792;BME280;34587;48.816;9.420;2023-03-15T14:57:11;98960.47;;;6.70;64.69
48792;BME280;34587;48.816;9.420;2023-03-15T14:59:36;98970.69;;;6.24;66.56
48792;BME280;34587;48.816;9.420;2023-03-15T15:02:01;98968.94;;;6.14;68.39
48792;BME280;34587;48.816;9.420;2023-03-15T15:04:31;98974.16;;;6.57;67.82
48792;BME280;34587;48.816;9.420;2023-03-15T15:06:57;98982.72;;;6.40;67.64
48792;BME280;34587;48.816;9.420;2023-03-15T15:09:25;98985.94;;;5.77;68.06
48792;BME280;34587;48.816;9.420;2023-03-15T15:11:52;99016.44;;;5.23;69.76
48792;BME280;34587;48.816;9.420;2023-03-15T15:14:19;99025.03;;;4.31;75.55
48792;BME280;34587;48.816;9.420;2023-03-15T15:16:46;99025.13;;;3.72;80.35
48792;BME280;34587;48.816;9.420;2023-03-15T15:19:12;99026.84;;;3.71;82.50
48792;BME280;34587;48.816;9.420;2023-03-15T15:21:38;99025.31;;;3.85;83.26
48792;BME280;34587;48.816;9.420;2023-03-15T15:24:10;99021.91;;;3.83;82.70
48792;BME280;34587;48.816;9.420;2023-03-15T15:26:37;99012.63;;;3.96;82.64
48792;BME280;34587;48.816;9.420;2023-03-15T15:29:02;99018.09;;;4.22;83.12
48792;BME280;34587;48.816;9.420;2023-03-15T15:31:28;99024.09;;;4.24;84.03
48792;BME280;34587;48.816;9.420;2023-03-15T15:33:54;99032.69;;;4.29;84.42
48792;BME280;34587;48.816;9.420;2023-03-15T15:36:31;99025.78;;;4.25;84.37
48792;BME280;34587;48.816;9.420;2023-03-15T15:38:58;99028.41;;;4.30;85.33
48792;BME280;34587;48.816;9.420;2023-03-15T15:41:29;99029.75;;;3.97;85.34
48792;BME280;34587;48.816;9.420;2023-03-15T15:43:55;99031.66;;;4.13;86.77
48792;BME280;34587;48.816;9.420;2023-03-15T15:46:21;99037.69;;;4.17;85.90
48792;BME280;34587;48.816;9.420;2023-03-15T15:48:48;99037.69;;;4.20;85.92
48792;BME280;34587;48.816;9.420;2023-03-15T15:51:18;99040.09;;;4.03;85.34
48792;BME280;34587;48.816;9.420;2023-03-15T15:53:44;99040.94;;;4.04;86.60
48792;BME280;34587;48.816;9.420;2023-03-15T15:56:10;99046.91;;;4.01;86.68
48792;BME280;34587;48.816;9.420;2023-03-15T15:58:40;99043.56;;;4.07;86.49
48792;BME280;34587;48.816;9.420;2023-03-15T16:01:05;99055.47;;;4.03;87.18
48792;BME280;34587;48.816;9.420;2023-03-15T16:03:31;99069.69;;;3.81;87.92
48792;BME280;34587;48.816;9.420;2023-03-15T16:05:56;99066.75;;;3.54;87.24
48792;BME280;34587;48.816;9.420;2023-03-15T16:08:23;99083.47;;;3.29;88.12
48792;BME280;34587;48.816;9.420;2023-03-15T16:10:50;99086.13;;;3.37;89.15
48792;BME280;34587;48.816;9.420;2023-03-15T16:13:15;99076.81;;;3.43;89.31
48792;BME280;34587;48.816;9.420;2023-03-15T16:15:41;99083.41;;;3.27;89.05
48792;BME280;34587;48.816;9.420;2023-03-15T16:18:10;99075.69;;;3.24;89.39
48792;BME280;34587;48.816;9.420;2023-03-15T16:20:37;99080.97;;;3.35;90.52
48792;BME280;34587;48.816;9.420;2023-03-15T16:23:03;99075.38;;;3.60;90.76
48792;BME280;34587;48.816;9.420;2023-03-15T16:25:32;99083.31;;;3.77;90.04
48792;BME280;34587;48.816;9.420;2023-03-15T16:27:59;99084.84;;;3.66;88.51
48792;BME280;34587;48.816;9.420;2023-03-15T16:30:27;99083.00;;;3.56;88.46
48792;BME280;34587;48.816;9.420;2023-03-15T16:32:54;99089.19;;;3.70;88.74
48792;BME280;34587;48.816;9.420;2023-03-15T16:35:21;99082.84;;;3.47;87.61
48792;BME280;34587;48.816;9.420;2023-03-15T16:37:51;99086.56;;;3.67;89.32
48792;BME280;34587;48.816;9.420;2023-03-15T16:40:30;99091.53;;;3.55;88.08
48792;BME280;34587;48.816;9.420;2023-03-15T16:42:56;99089.81;;;3.54;89.21
48792;BME280;34587;48.816;9.420;2023-03-15T16:45:22;99105.97;;;3.48;88.19
48792;BME280;34587;48.816;9.420;2023-03-15T16:47:48;99094.72;;;3.39;88.92
48792;BME280;34587;48.816;9.420;2023-03-15T16:50:14;99100.06;;;3.54;89.78
48792;BME280;34587;48.816;9.420;2023-03-15T16:52:41;99089.84;;;3.57;89.73
48792;BME280;34587;48.816;9.420;2023-03-15T16:55:11;99093.38;;;3.65;89.00
48792;BME280;34587;48.816;9.420;2023-03-15T16:57:38;99084.84;;;3.66;89.28
48792;BME280;34587;48.816;9.420;2023-03-15T17:00:04;99098.44;;;3.62;89.38
48792;BME280;34587;48.816;9.420;2023-03-15T17:02:35;99101.00;;;3.60;90.00
48792;BME280;34587;48.816;9.420;2023-03-15T17:05:01;99107.00;;;3.61;89.44
48792;BME280;34587;48.816;9.420;2023-03-15T17:07:30;99111.03;;;3.47;88.76
48792;BME280;34587;48.816;9.420;2023-03-15T17:09:57;99113.69;;;3.53;90.64
48792;BME280;34587;48.816;9.420;2023-03-15T17:12:26;99111.94;;;3.49;91.05
48792;BME280;34587;48.816;9.420;2023-03-15T17:14:54;99119.56;;;3.47;91.79
48792;BME280;34587;48.816;9.420;2023-03-15T17:17:20;99122.03;;;3.40;91.49
48792;BME280;34587;48.816;9.420;2023-03-15T17:19:46;99129.81;;;3.47;92.13
48792;BME280;34587;48.816;9.420;2023-03-15T17:22:13;99128.78;;;3.34;91.96
48792;BME280;34587;48.816;9.420;2023-03-15T17:24:39;99129.25;;;3.14;91.39
48792;BME280;34587;48.816;9.420;2023-03-15T17:27:04;99131.59;;;3.00;92.13
48792;BME280;34587;48.816;9.420;2023-03-15T17:29:30;99134.28;;;3.07;92.17
48792;BME280;34587;48.816;9.420;2023-03-15T17:31:55;99135.75;;;2.95;92.29
48792;BME280;34587;48.816;9.420;2023-03-15T17:34:21;99146.81;;;2.94;93.66
48792;BME280;34587;48.816;9.420;2023-03-15T17:36:46;99137.31;;;2.87;93.95
48792;BME280;34587;48.816;9.420;2023-03-15T17:39:14;99146.53;;;2.77;93.69
48792;BME280;34587;48.816;9.420;2023-03-15T17:41:44;99150.63;;;2.69;95.02
48792;BME280;34587;48.816;9.420;2023-03-15T17:44:10;99149.88;;;2.74;95.61
48792;BME280;34587;48.816;9.420;2023-03-15T17:46:35;99153.66;;;2.51;95.88
48792;BME280;34587;48.816;9.420;2023-03-15T17:49:02;99151.03;;;2.46;96.03
48792;BME280;34587;48.816;9.420;2023-03-15T17:51:31;99163.81;;;2.46;96.54
48792;BME280;34587;48.816;9.420;2023-03-15T17:53:57;99162.75;;;2.37;97.39
48792;BME280;34587;48.816;9.420;2023-03-15T17:56:24;99159.00;;;2.19;98.36
48792;BME280;34587;48.816;9.420;2023-03-15T17:58:49;99160.47;;;2.08;98.59
48792;BME280;34587;48.816;9.420;2023-03-15T18:01:17;99171.25;;;1.96;99.01
48792;BME280;34587;48.816;9.420;2023-03-15T18:03:47;99175.44;;;1.93;99.10
48792;BME280;34587;48.816;9.420;2023-03-15T18:06:13;99182.97;;;1.87;99.15
48792;BME280;34587;48.816;9.420;2023-03-15T18:08:40;99176.81;;;1.78;99.29
48792;BME280;34587;48.816;9.420;2023-03-15T18:11:20;99178.38;;;1.73;99.54
48792;BME280;34587;48.816;9.420;2023-03-15T18:13:46;99172.19;;;1.64;99.48
48792;BME280;34587;48.816;9.420;2023-03-15T18:16:12;99183.38;;;1.67;99.64